createdAt,value
2023-03-13T00:01:19.520Z,97711.16
2023-03-13T00:03:48.008Z,97708.81
2023-03-13T00:06:16.969Z,97707.72
2023-03-13T00:08:46.538Z,97707.75
2023-03-13T00:11:16.422Z,97726.34
2023-03-13T00:13:45.572Z,97710.72
2023-03-13T00:16:15.774Z,97704.72
2023-03-13T00:18:46.824Z,97698.81
2023-03-13T00:21:15.225Z,97696.44
2023-03-13T00:23:43.483Z,97710.94
2023-03-13T00:26:14.855Z,97703.34
2023-03-13T00:28:45.815Z,97681.63
2023-03-13T00:31:14.972Z,97692.69
2023-03-13T00:33:44.731Z,97692.78
2023-03-13T00:36:15.191Z,97683.00
2023-03-13T00:38:43.795Z,97690.31
2023-03-13T00:41:14.891Z,97681.06
2023-03-13T00:43:44.369Z,97668.16
2023-03-13T00:46:14.161Z,97671.91
2023-03-13T00:48:42.467Z,97669.84
2023-03-13T00:51:11.825Z,97666.44
2023-03-13T00:53:40.185Z,97664.84
2023-03-13T00:56:10.383Z,97671.06
2023-03-13T00:58:42.072Z,97668.31
2023-03-13T01:01:11.831Z,97665.88
2023-03-13T01:03:40.944Z,97657.09
2023-03-13T01:06:11.386Z,97662.00
2023-03-13T01:08:39.861Z,97655.91
2023-03-13T01:11:10.051Z,97658.94
2023-03-13T01:13:40.249Z,97665.84
2023-03-13T01:16:11.134Z,97668.03
2023-03-13T01:18:42.056Z,97668.84
2023-03-13T01:21:10.957Z,97673.41
2023-03-13T01:23:39.401Z,97669.50
2023-03-13T01:26:09.379Z,97669.00
2023-03-13T01:28:39.313Z,97682.03
2023-03-13T01:31:14.681Z,97679.78
2023-03-13T01:33:43.466Z,97677.00
2023-03-13T01:36:12.181Z,97689.31
2023-03-13T01:38:40.989Z,97691.47
2023-03-13T01:41:12.732Z,97691.59
2023-03-13T01:43:42.440Z,97689.50
2023-03-13T01:46:16.265Z,97691.88
2023-03-13T01:48:51.201Z,97680.97
2023-03-13T01:51:22.866Z,97678.28
2023-03-13T01:53:52.419Z,97669.16
2023-03-13T01:56:24.306Z,97675.00
2023-03-13T01:58:54.596Z,97666.78
2023-03-13T02:01:24.546Z,97673.72
2023-03-13T02:03:53.099Z,97672.31
2023-03-13T02:06:21.695Z,97680.13
2023-03-13T02:08:54.192Z,97661.47
2023-03-13T02:11:31.152Z,97682.59
2023-03-13T02:14:01.995Z,97675.88
2023-03-13T02:16:30.604Z,97676.47
2023-03-13T02:18:58.962Z,97686.34
2023-03-13T02:21:38.535Z,97675.50
2023-03-13T02:24:14.474Z,97687.47
2023-03-13T02:26:44.465Z,97701.19
2023-03-13T02:29:18.578Z,97697.56
2023-03-13T02:31:48.547Z,97700.16
2023-03-13T02:34:20.494Z,97714.94
2023-03-13T02:36:49.409Z,97710.13
2023-03-13T02:39:20.012Z,97711.16
2023-03-13T02:41:50.348Z,97709.56
2023-03-13T02:44:18.719Z,97720.22
2023-03-13T02:46:50.519Z,97721.28
2023-03-13T02:49:23.352Z,97721.53
2023-03-13T02:51:52.450Z,97725.00
2023-03-13T02:54:22.978Z,97724.03
2023-03-13T02:56:56.726Z,97730.94
2023-03-13T02:59:25.761Z,97725.00
2023-03-13T03:01:54.428Z,97729.63
2023-03-13T03:04:23.565Z,97716.78
2023-03-13T03:06:52.814Z,97725.66
2023-03-13T03:09:21.860Z,97713.91
2023-03-13T03:11:50.420Z,97720.31
2023-03-13T03:14:20.157Z,97726.78
2023-03-13T03:16:49.025Z,97719.72
2023-03-13T03:19:17.375Z,97723.94
2023-03-13T03:21:46.538Z,97724.53
2023-03-13T03:24:14.758Z,97720.84
2023-03-13T03:26:43.414Z,97726.81
2023-03-13T03:29:11.970Z,97726.47
2023-03-13T03:31:42.216Z,97725.31
2023-03-13T03:34:10.571Z,97725.19
2023-03-13T03:36:39.206Z,97723.69
2023-03-13T03:39:09.949Z,97709.81
2023-03-13T03:41:38.580Z,97725.84
2023-03-13T03:44:07.365Z,97723.13
2023-03-13T03:46:35.961Z,97723.69
2023-03-13T03:49:05.628Z,97708.19
2023-03-13T03:51:34.309Z,97725.84
2023-03-13T03:54:02.598Z,97720.94
2023-03-13T03:56:31.254Z,97725.47
2023-03-13T03:58:59.537Z,97725.84
2023-03-13T04:01:28.194Z,97719.94
2023-03-13T04:03:56.504Z,97711.50
2023-03-13T04:06:26.520Z,97722.41
2023-03-13T04:08:55.646Z,97730.72
2023-03-13T04:11:24.277Z,97718.97
2023-03-13T04:13:52.778Z,97725.84
2023-03-13T04:16:21.309Z,97723.72
2023-03-13T04:18:49.664Z,97717.00
2023-03-13T04:21:18.220Z,97717.28
2023-03-13T04:23:48.046Z,97716.38
2023-03-13T04:26:16.680Z,97719.53
2023-03-13T04:28:45.049Z,97710.13
2023-03-13T04:31:13.642Z,97718.69
2023-03-13T04:33:42.170Z,97702.31
2023-03-13T04:36:11.211Z,97703.72
2023-03-13T04:38:39.678Z,97708.28
2023-03-13T04:41:09.685Z,97705.28
2023-03-13T04:43:37.988Z,97701.19
2023-03-13T04:46:06.661Z,97701.13
2023-03-13T04:48:35.243Z,97704.06
2023-03-13T04:51:03.934Z,97710.13
2023-03-13T04:53:32.264Z,97703.84
2023-03-13T04:56:01.048Z,97706.50
2023-03-13T04:58:30.895Z,97709.00
2023-03-13T05:00:59.472Z,97699.34
2023-03-13T05:03:27.805Z,97707.44
2023-03-13T05:05:56.437Z,97709.03
2023-03-13T05:08:24.944Z,97693.97
2023-03-13T05:10:53.509Z,97703.06
2023-03-13T05:13:21.905Z,97697.03
2023-03-13T05:15:51.971Z,97694.88
2023-03-13T05:18:20.356Z,97689.16
2023-03-13T05:20:49.163Z,97689.47
2023-03-13T05:23:17.543Z,97684.38
2023-03-13T05:25:46.224Z,97681.13
2023-03-13T05:28:14.836Z,97693.19
2023-03-13T05:30:43.496Z,97692.44
2023-03-13T05:33:13.347Z,97691.31
2023-03-13T05:35:41.994Z,97687.78
2023-03-13T05:38:10.455Z,97689.25
2023-03-13T05:40:38.955Z,97691.31
2023-03-13T05:43:07.454Z,97688.00
2023-03-13T05:45:36.046Z,97694.13
2023-03-13T05:48:04.209Z,97693.69
2023-03-13T05:50:34.220Z,97694.06
2023-03-13T05:53:02.571Z,97689.41
2023-03-13T05:55:31.106Z,97690.59
2023-03-13T05:57:59.378Z,97676.75
2023-03-13T06:00:28.273Z,97672.78
2023-03-13T06:02:56.638Z,97673.47
2023-03-13T06:05:25.227Z,97663.41
2023-03-13T06:07:55.040Z,97654.97
2023-03-13T06:10:26.123Z,97666.31
2023-03-13T06:12:55.071Z,97655.38
2023-03-13T06:15:24.153Z,97663.09
2023-03-13T06:17:52.531Z,97658.94
2023-03-13T06:20:22.388Z,97660.06
2023-03-13T06:22:50.737Z,97665.88
2023-03-13T06:25:20.703Z,97655.88
2023-03-13T06:27:49.032Z,97660.09
2023-03-13T06:30:17.857Z,97660.63
2023-03-13T06:32:51.577Z,97663.50
2023-03-13T06:35:20.134Z,97653.94
2023-03-13T06:37:48.564Z,97659.63
2023-03-13T06:40:17.332Z,97661.66
2023-03-13T06:42:47.143Z,97644.72
2023-03-13T06:45:15.989Z,97663.56
2023-03-13T06:47:44.421Z,97661.31
2023-03-13T06:50:13.125Z,97658.41
2023-03-13T06:52:44.108Z,97658.69
2023-03-13T06:55:12.954Z,97659.19
2023-03-13T06:57:41.409Z,97649.34
2023-03-13T07:00:13.461Z,97641.06
2023-03-13T07:02:42.064Z,97644.56
2023-03-13T07:05:14.638Z,97634.06
2023-03-13T07:07:43.319Z,97638.31
2023-03-13T07:10:13.081Z,97641.44
2023-03-13T07:12:41.430Z,97635.28
2023-03-13T07:15:12.461Z,97627.28
2023-03-13T07:17:40.787Z,97628.69
2023-03-13T07:20:11.825Z,97625.47
2023-03-13T07:22:40.326Z,97616.69
2023-03-13T07:25:10.847Z,97626.00
2023-03-13T07:27:39.214Z,97626.53
2023-03-13T07:30:08.822Z,97621.16
2023-03-13T07:32:38.579Z,97616.19
2023-03-13T07:35:07.976Z,97617.84
2023-03-13T07:37:36.292Z,97599.53
2023-03-13T07:40:05.777Z,97616.03
2023-03-13T07:42:34.377Z,97601.38
2023-03-13T07:45:03.030Z,97603.63
2023-03-13T07:47:31.433Z,97603.59
2023-03-13T07:50:01.477Z,97593.81
2023-03-13T07:52:29.853Z,97604.38
2023-03-13T07:54:58.538Z,97590.25
2023-03-13T07:57:27.219Z,97594.31
2023-03-13T07:59:55.906Z,97577.44
2023-03-13T08:02:24.355Z,97587.00
2023-03-13T08:04:54.176Z,97582.06
2023-03-13T08:07:23.886Z,97589.84
2023-03-13T08:09:52.496Z,97586.63
2023-03-13T08:12:20.765Z,97583.41
2023-03-13T08:14:49.508Z,97597.41
2023-03-13T08:17:17.947Z,97592.66
2023-03-13T08:19:46.558Z,97583.25
2023-03-13T08:22:14.997Z,97583.88
2023-03-13T08:24:45.017Z,97587.25
2023-03-13T08:27:13.251Z,97572.25
2023-03-13T08:29:44.375Z,97566.47
2023-03-13T08:32:15.694Z,97561.34
2023-03-13T08:34:44.373Z,97571.22
2023-03-13T08:37:16.695Z,97567.31
2023-03-13T08:39:48.672Z,97558.78
2023-03-13T08:42:17.008Z,97563.56
2023-03-13T08:44:46.329Z,97554.84
2023-03-13T08:47:14.657Z,97570.47
2023-03-13T08:49:43.609Z,97563.84
2023-03-13T08:52:12.153Z,97566.00
2023-03-13T08:54:40.984Z,97567.09
2023-03-13T08:57:10.613Z,97552.13
2023-03-13T08:59:39.146Z,97561.81
2023-03-13T09:02:07.601Z,97561.44
2023-03-13T09:04:36.295Z,97542.25
2023-03-13T09:07:04.660Z,97537.81
2023-03-13T09:09:33.301Z,97533.78
2023-03-13T09:12:01.579Z,97538.84
2023-03-13T09:14:31.529Z,97529.75
2023-03-13T09:16:59.756Z,97519.34
2023-03-13T09:19:28.316Z,97529.66
2023-03-13T09:21:56.553Z,97520.00
2023-03-13T09:24:25.540Z,97518.31
2023-03-13T09:27:01.041Z,97518.22
2023-03-13T09:29:33.433Z,97534.06
2023-03-13T09:32:02.147Z,97523.16
2023-03-13T09:34:32.118Z,97510.31
2023-03-13T09:37:00.600Z,97512.81
2023-03-13T09:39:29.439Z,97509.28
2023-03-13T09:42:06.794Z,97503.94
2023-03-13T09:44:41.859Z,97492.41
2023-03-13T09:47:13.794Z,97496.09
2023-03-13T09:49:44.335Z,97510.38
2023-03-13T09:52:17.928Z,97483.63
2023-03-13T09:54:50.585Z,97489.41
2023-03-13T09:57:24.068Z,97491.41
2023-03-13T09:59:57.667Z,97489.63
2023-03-13T10:02:32.923Z,97426.72
2023-03-13T10:05:07.586Z,97427.38
2023-03-13T10:07:35.919Z,97500.56
2023-03-13T10:10:08.113Z,97475.22
2023-03-13T10:12:40.424Z,97462.59
2023-03-13T10:15:34.339Z,97451.84
2023-03-13T10:18:13.664Z,97447.69
2023-03-13T10:20:42.433Z,97438.63
2023-03-13T10:23:16.253Z,97444.44
2023-03-13T10:25:44.758Z,97435.75
2023-03-13T10:28:16.930Z,97439.53
2023-03-13T10:30:49.373Z,97454.72
2023-03-13T10:33:25.645Z,97437.34
2023-03-13T10:36:06.563Z,97412.84
2023-03-13T10:38:37.019Z,97392.59
2023-03-13T10:41:10.586Z,97433.06
2023-03-13T10:43:51.852Z,97409.66
2023-03-13T10:46:29.219Z,97413.13
2023-03-13T10:48:58.615Z,97372.78
2023-03-13T10:51:39.710Z,97411.78
2023-03-13T10:54:26.015Z,97416.41
2023-03-13T10:57:14.204Z,97416.06
2023-03-13T10:59:44.936Z,97383.03
2023-03-13T11:02:36.964Z,97387.84
2023-03-13T11:05:33.724Z,97403.75
2023-03-13T11:08:13.739Z,97402.31
2023-03-13T11:10:54.817Z,97399.53
2023-03-13T11:13:37.137Z,97385.75
2023-03-13T11:16:24.081Z,97390.22
2023-03-13T11:19:12.037Z,97364.84
2023-03-13T11:21:46.153Z,97365.38
2023-03-13T11:24:17.159Z,97360.00
2023-03-13T11:27:01.985Z,97352.41
2023-03-13T11:29:38.820Z,97347.69
2023-03-13T11:32:15.730Z,97341.53
2023-03-13T11:34:48.832Z,97349.13
2023-03-13T11:37:19.613Z,97344.31
2023-03-13T11:39:55.024Z,97334.75
2023-03-13T11:42:55.957Z,97341.28
2023-03-13T11:45:46.417Z,97316.47
2023-03-13T11:48:20.861Z,97331.44
2023-03-13T11:50:53.870Z,97326.31
2023-03-13T11:53:34.634Z,97333.59
2023-03-13T11:56:10.487Z,97325.44
2023-03-13T11:58:45.969Z,97290.56
2023-03-13T12:01:16.589Z,97294.56
2023-03-13T12:03:56.041Z,97297.50
2023-03-13T12:06:31.876Z,97308.28
2023-03-13T12:09:05.357Z,97313.91
2023-03-13T12:11:35.450Z,97290.50
2023-03-13T12:14:06.194Z,97299.41
2023-03-13T12:16:42.580Z,97270.56
2023-03-13T12:19:16.772Z,97292.81
2023-03-13T12:21:50.630Z,97293.00
2023-03-13T12:24:24.793Z,97299.75
2023-03-13T12:26:56.965Z,97296.19
2023-03-13T12:29:35.567Z,97296.03
2023-03-13T12:32:06.317Z,97306.69
2023-03-13T12:34:38.107Z,97283.59
2023-03-13T12:37:12.702Z,97273.44
2023-03-13T12:39:44.438Z,97290.53
2023-03-13T12:42:22.658Z,97298.66
2023-03-13T12:44:51.284Z,97293.38
2023-03-13T12:47:28.044Z,97311.31
2023-03-13T12:50:25.825Z,97294.81
2023-03-13T12:53:22.641Z,97296.78
2023-03-13T12:56:02.700Z,97313.03
2023-03-13T12:58:41.251Z,97293.88
2023-03-13T13:01:15.087Z,97305.22
2023-03-13T13:03:52.652Z,97287.19
2023-03-13T13:06:21.018Z,97303.09
2023-03-13T13:09:09.857Z,97298.66
2023-03-13T13:11:49.132Z,97296.28
2023-03-13T13:15:00.071Z,97291.53
2023-03-13T13:17:34.395Z,97298.06
2023-03-13T13:20:32.057Z,97293.41
2023-03-13T13:23:28.367Z,97279.72
2023-03-13T13:26:48.537Z,97277.28
2023-03-13T13:29:59.623Z,97266.91
2023-03-13T13:32:48.419Z,97268.69
2023-03-13T13:35:31.387Z,97261.22
2023-03-13T13:38:23.574Z,97267.84
2023-03-13T13:41:05.267Z,97269.38
2023-03-13T13:43:35.054Z,97257.94
2023-03-13T13:46:09.187Z,97255.00
2023-03-13T13:48:39.992Z,97261.75
2023-03-13T13:51:26.478Z,97259.00
2023-03-13T13:53:57.224Z,97253.81
2023-03-13T13:56:43.918Z,97251.66
2023-03-13T13:59:37.469Z,97252.22
2023-03-13T14:02:22.270Z,97253.44
2023-03-13T14:04:54.306Z,97249.56
2023-03-13T14:07:27.103Z,97272.09
2023-03-13T14:10:03.171Z,97252.66
2023-03-13T14:12:34.175Z,97247.22
2023-03-13T14:15:19.339Z,97249.06
2023-03-13T14:17:49.490Z,97259.66
2023-03-13T14:20:32.671Z,97255.19
2023-03-13T14:23:02.542Z,97255.41
2023-03-13T14:25:43.898Z,97254.50
2023-03-13T14:28:22.595Z,97237.88
2023-03-13T14:30:52.837Z,97240.41
2023-03-13T14:33:21.510Z,97233.50
2023-03-13T14:35:50.807Z,97232.09
2023-03-13T14:38:20.863Z,97232.53
2023-03-13T14:40:49.861Z,97222.50
2023-03-13T14:43:30.960Z,97237.75
2023-03-13T14:46:00.094Z,97226.56
2023-03-13T14:48:32.972Z,97216.22
2023-03-13T14:51:15.697Z,97219.63
2023-03-13T14:53:55.610Z,97236.84
2023-03-13T14:56:32.687Z,97229.69
2023-03-13T14:59:27.221Z,97215.16
2023-03-13T15:02:00.843Z,97209.94
2023-03-13T15:04:52.168Z,97219.25
2023-03-13T15:07:22.991Z,97215.59
2023-03-13T15:09:52.103Z,97215.34
2023-03-13T15:12:22.554Z,97213.75
2023-03-13T15:14:53.022Z,97192.63
2023-03-13T15:17:22.621Z,97199.31
2023-03-13T15:19:55.383Z,97202.25
2023-03-13T15:22:29.846Z,97195.28
2023-03-13T15:25:07.248Z,97194.91
2023-03-13T15:27:36.608Z,97191.91
2023-03-13T15:30:07.741Z,97189.31
2023-03-13T15:32:38.539Z,97193.00
2023-03-13T15:35:23.515Z,97178.78
2023-03-13T15:37:52.308Z,97189.53
2023-03-13T15:40:21.113Z,97193.72
2023-03-13T15:42:49.694Z,97188.72
2023-03-13T15:45:19.318Z,97193.69
2023-03-13T15:47:48.265Z,97195.47
2023-03-13T15:50:18.586Z,97188.25
2023-03-13T15:52:47.084Z,97198.41
2023-03-13T15:55:15.903Z,97198.41
2023-03-13T15:57:47.319Z,97191.16
2023-03-13T16:00:21.863Z,97202.28
2023-03-13T16:02:50.950Z,97205.00
2023-03-13T16:05:19.545Z,97192.41
2023-03-13T16:07:48.156Z,97197.06
2023-03-13T16:10:19.232Z,97195.97
2023-03-13T16:12:47.595Z,97194.44
2023-03-13T16:15:16.413Z,97172.97
2023-03-13T16:17:46.483Z,97187.88
2023-03-13T16:20:17.488Z,97183.03
2023-03-13T16:22:46.693Z,97185.78
2023-03-13T16:25:15.692Z,97179.72
2023-03-13T16:27:44.547Z,97177.72
2023-03-13T16:30:19.141Z,97166.25
2023-03-13T16:32:49.330Z,97174.97
2023-03-13T16:35:17.845Z,97178.38
2023-03-13T16:37:46.492Z,97173.69
2023-03-13T16:40:19.702Z,97167.25
2023-03-13T16:42:48.379Z,97158.13
2023-03-13T16:45:16.956Z,97160.53
2023-03-13T16:47:46.737Z,97158.41
2023-03-13T16:50:24.703Z,97154.06
2023-03-13T16:52:53.922Z,97150.81
2023-03-13T16:55:28.385Z,97166.19
2023-03-13T16:57:57.350Z,97158.00
2023-03-13T17:00:27.191Z,97151.16
2023-03-13T17:02:59.113Z,97154.50
2023-03-13T17:05:29.288Z,97154.88
2023-03-13T17:07:57.972Z,97151.03
2023-03-13T17:10:28.466Z,97154.84
2023-03-13T17:12:57.032Z,97142.56
2023-03-13T17:15:26.625Z,97137.41
2023-03-13T17:17:55.356Z,97131.28
2023-03-13T17:20:25.321Z,97129.06
2023-03-13T17:22:56.373Z,97133.03
2023-03-13T17:25:24.892Z,97143.38
2023-03-13T17:27:53.747Z,97134.97
2023-03-13T17:30:25.394Z,97136.59
2023-03-13T17:32:54.208Z,97138.28
2023-03-13T17:35:23.175Z,97138.41
2023-03-13T17:37:51.807Z,97134.09
2023-03-13T17:40:23.947Z,97133.16
2023-03-13T17:42:52.528Z,97125.31
2023-03-13T17:45:20.930Z,97120.41
2023-03-13T17:47:50.488Z,97117.88
2023-03-13T17:50:20.810Z,97103.69
2023-03-13T17:52:49.465Z,97107.00
2023-03-13T17:55:18.467Z,97095.81
2023-03-13T17:57:48.911Z,97087.50
2023-03-13T18:00:26.729Z,97091.75
2023-03-13T18:02:55.399Z,97082.25
2023-03-13T18:05:25.569Z,97090.31
2023-03-13T18:07:55.992Z,97076.66
2023-03-13T18:10:25.484Z,97072.59
2023-03-13T18:12:55.465Z,97072.06
2023-03-13T18:15:25.097Z,97071.56
2023-03-13T18:17:54.753Z,97064.84
2023-03-13T18:20:26.142Z,97053.13
2023-03-13T18:22:59.493Z,97063.50
2023-03-13T18:25:28.133Z,97056.13
2023-03-13T18:27:58.165Z,97046.69
2023-03-13T18:30:27.292Z,97052.81
2023-03-13T18:32:56.242Z,97061.09
2023-03-13T18:35:24.550Z,97047.50
2023-03-13T18:37:53.184Z,97048.19
2023-03-13T18:40:24.590Z,97049.19
2023-03-13T18:42:53.272Z,97051.56
2023-03-13T18:45:24.687Z,97057.47
2023-03-13T18:47:53.347Z,97048.75
2023-03-13T18:50:26.346Z,97039.03
2023-03-13T18:52:56.190Z,97034.75
2023-03-13T18:55:25.373Z,97035.03
2023-03-13T18:57:54.490Z,97021.50
2023-03-13T19:00:26.157Z,97012.81
2023-03-13T19:02:54.801Z,97013.06
2023-03-13T19:05:23.583Z,97009.44
2023-03-13T19:07:52.496Z,97011.16
2023-03-13T19:10:24.296Z,97005.06
2023-03-13T19:12:54.248Z,97008.47
2023-03-13T19:15:26.988Z,97012.97
2023-03-13T19:17:57.071Z,97005.41
2023-03-13T19:20:25.608Z,97008.16
2023-03-13T19:22:56.225Z,97011.97
2023-03-13T19:25:24.807Z,97009.94
2023-03-13T19:27:53.378Z,97016.09
2023-03-13T19:30:24.305Z,97024.09
2023-03-13T19:32:53.253Z,97017.44
2023-03-13T19:35:22.309Z,97006.38
2023-03-13T19:37:51.387Z,97011.72
2023-03-13T19:40:21.468Z,97011.28
2023-03-13T19:42:50.108Z,96998.53
2023-03-13T19:45:20.558Z,97015.72
2023-03-13T19:47:50.635Z,97004.94
2023-03-13T19:50:20.878Z,96996.81
2023-03-13T19:52:49.827Z,96990.72
2023-03-13T19:55:18.261Z,97004.22
2023-03-13T19:57:46.986Z,96998.63
2023-03-13T20:00:21.035Z,96985.94
2023-03-13T20:02:52.388Z,96989.94
2023-03-13T20:05:20.803Z,96985.22
2023-03-13T20:07:49.476Z,96987.13
2023-03-13T20:10:17.888Z,96975.25
2023-03-13T20:12:46.445Z,96973.53
2023-03-13T20:15:14.785Z,96975.13
2023-03-13T20:17:44.284Z,96970.22
2023-03-13T20:20:14.566Z,96962.56
2023-03-13T20:22:43.368Z,96960.00
2023-03-13T20:25:11.861Z,96960.09
2023-03-13T20:27:40.552Z,96953.25
2023-03-13T20:30:10.251Z,96953.50
2023-03-13T20:32:49.103Z,96938.59
2023-03-13T20:35:26.980Z,96945.25
2023-03-13T20:37:57.891Z,96929.97
2023-03-13T20:40:26.536Z,96938.13
2023-03-13T20:42:55.465Z,96936.94
2023-03-13T20:45:24.065Z,96936.72
2023-03-13T20:47:52.598Z,96925.16
2023-03-13T20:50:21.111Z,96914.06
2023-03-13T20:52:51.162Z,96909.66
2023-03-13T20:55:19.521Z,96905.69
2023-03-13T20:57:48.104Z,96910.25
2023-03-13T21:00:16.930Z,96908.28
2023-03-13T21:02:46.845Z,96913.13
2023-03-13T21:05:15.189Z,96925.50
2023-03-13T21:07:44.026Z,96911.84
2023-03-13T21:10:13.956Z,96926.66
2023-03-13T21:12:42.818Z,96903.22
2023-03-13T21:15:12.495Z,96917.56
2023-03-13T21:17:41.722Z,96917.03
2023-03-13T21:20:11.989Z,96905.63
2023-03-13T21:22:41.188Z,96891.09
2023-03-13T21:25:11.229Z,96882.91
2023-03-13T21:27:43.865Z,96888.91
2023-03-13T21:30:14.031Z,96874.56
2023-03-13T21:32:42.963Z,96884.00
2023-03-13T21:35:12.020Z,96889.47
2023-03-13T21:37:40.869Z,96887.50
2023-03-13T21:40:10.824Z,96886.84
2023-03-13T21:42:41.091Z,96891.41
2023-03-13T21:45:10.931Z,96883.06
2023-03-13T21:47:40.495Z,96875.59
2023-03-13T21:50:11.131Z,96878.91
2023-03-13T21:52:41.360Z,96880.53
2023-03-13T21:55:12.152Z,96873.63
2023-03-13T21:57:42.171Z,96873.97
2023-03-13T22:00:14.072Z,96867.00
2023-03-13T22:02:44.278Z,96878.44
2023-03-13T22:05:12.834Z,96878.44
2023-03-13T22:07:41.427Z,96874.88
2023-03-13T22:10:10.774Z,96866.06
2023-03-13T22:12:39.388Z,96861.22
2023-03-13T22:15:10.735Z,96855.53
2023-03-13T22:17:39.333Z,96852.44
2023-03-13T22:20:10.100Z,96843.34
2023-03-13T22:22:38.760Z,96843.25
2023-03-13T22:25:07.685Z,96846.22
2023-03-13T22:27:36.465Z,96853.91
2023-03-13T22:30:05.171Z,96849.22
2023-03-13T22:32:35.433Z,96831.53
2023-03-13T22:35:04.209Z,96828.53
2023-03-13T22:37:32.943Z,96826.88
2023-03-13T22:40:01.155Z,96821.34
2023-03-13T22:42:29.704Z,96820.19
2023-03-13T22:44:58.278Z,96798.75
2023-03-13T22:47:27.089Z,96796.91
2023-03-13T22:49:59.982Z,96795.66
2023-03-13T22:52:31.109Z,96782.81
2023-03-13T22:54:59.612Z,96776.75
2023-03-13T22:57:30.321Z,96783.75
2023-03-13T23:00:00.320Z,96777.06
2023-03-13T23:02:30.208Z,96770.63
2023-03-13T23:05:01.317Z,96771.81
2023-03-13T23:07:31.227Z,96773.97
2023-03-13T23:09:59.831Z,96767.81
2023-03-13T23:12:30.951Z,96765.81
2023-03-13T23:15:00.660Z,96759.88
2023-03-13T23:17:31.677Z,96775.22
2023-03-13T23:20:01.640Z,96771.09
2023-03-13T23:22:33.058Z,96770.31
2023-03-13T23:25:01.450Z,96776.41
2023-03-13T23:27:30.143Z,96767.91
2023-03-13T23:29:58.499Z,96761.81
2023-03-13T23:32:27.113Z,96757.59
2023-03-13T23:34:55.688Z,96769.97
2023-03-13T23:37:25.693Z,96757.22
2023-03-13T23:39:53.933Z,96757.13
2023-03-13T23:42:22.685Z,96753.00
2023-03-13T23:44:50.859Z,96750.25
2023-03-13T23:47:19.579Z,96749.34
2023-03-13T23:49:48.015Z,96750.03
2023-03-13T23:52:16.572Z,96749.34
2023-03-13T23:54:46.126Z,96743.59
2023-03-13T23:57:14.702Z,96738.34
2023-03-13T23:59:43.225Z,96734.22
